createdAt,value
2022-11-17T00:00:42.256Z,99.90
2022-11-17T00:03:18.335Z,99.90
2022-11-17T00:05:45.490Z,99.90
2022-11-17T00:08:12.511Z,99.90
2022-11-17T00:10:39.364Z,99.90
2022-11-17T00:13:24.901Z,99.90
2022-11-17T00:15:51.718Z,99.90
2022-11-17T00:18:37.465Z,99.90
2022-11-17T00:21:21.120Z,99.90
2022-11-17T00:23:48.598Z,99.90
2022-11-17T00:26:20.682Z,99.90
2022-11-17T00:28:51.157Z,99.90
2022-11-17T00:31:36.525Z,99.90
2022-11-17T00:34:06.341Z,99.90
2022-11-17T00:36:51.109Z,99.90
2022-11-17T00:39:19.786Z,99.90
2022-11-17T00:41:46.822Z,99.90
2022-11-17T00:44:13.787Z,99.90
2022-11-17T00:46:41.345Z,99.90
2022-11-17T00:49:09.498Z,99.90
2022-11-17T00:51:36.825Z,99.90
2022-11-17T00:54:05.445Z,99.90
2022-11-17T00:56:32.501Z,99.90
2022-11-17T00:59:00.083Z,99.90
2022-11-17T01:01:27.512Z,99.90
2022-11-17T01:04:03.375Z,99.90
2022-11-17T01:06:36.713Z,99.90
2022-11-17T01:09:06.192Z,99.90
2022-11-17T01:11:33.275Z,99.90
2022-11-17T01:14:00.823Z,99.90
2022-11-17T01:16:29.417Z,99.90
2022-11-17T01:18:58.283Z,99.90
2022-11-17T01:21:26.910Z,99.90
2022-11-17T01:23:55.927Z,99.90
2022-11-17T01:26:25.676Z,99.90
2022-11-17T01:28:53.072Z,99.90
2022-11-17T01:31:25.935Z,99.90
2022-11-17T01:33:53.102Z,99.90
2022-11-17T01:36:23.624Z,99.90
2022-11-17T01:38:50.589Z,99.90
2022-11-17T01:41:26.343Z,99.90
2022-11-17T01:43:56.564Z,99.90
2022-11-17T01:46:33.767Z,99.90
2022-11-17T01:49:06.519Z,99.90
2022-11-17T01:51:37.523Z,99.90
2022-11-17T01:54:04.814Z,99.90
2022-11-17T01:56:40.029Z,99.90
2022-11-17T01:59:13.476Z,99.90
2022-11-17T02:01:56.003Z,99.90
2022-11-17T02:04:49.950Z,99.90
2022-11-17T02:07:27.305Z,99.90
2022-11-17T02:09:56.336Z,99.90
2022-11-17T02:12:26.389Z,99.90
2022-11-17T02:14:54.432Z,99.90
2022-11-17T02:17:22.475Z,99.90
2022-11-17T02:20:03.887Z,99.90
2022-11-17T02:23:07.914Z,99.90
2022-11-17T02:26:11.740Z,99.90
2022-11-17T02:28:48.825Z,99.90
2022-11-17T02:31:34.501Z,99.90
2022-11-17T02:34:19.749Z,99.90
2022-11-17T02:36:52.606Z,99.90
2022-11-17T02:39:43.690Z,99.90
2022-11-17T02:42:16.466Z,99.90
2022-11-17T02:44:47.789Z,99.90
2022-11-17T02:47:23.087Z,99.90
2022-11-17T02:49:57.011Z,99.90
2022-11-17T02:52:25.166Z,99.90
2022-11-17T02:54:51.905Z,99.90
2022-11-17T02:57:33.117Z,99.90
2022-11-17T03:00:05.131Z,99.90
2022-11-17T03:02:55.347Z,99.90
2022-11-17T03:05:52.146Z,99.90
2022-11-17T03:08:34.124Z,99.90
2022-11-17T03:11:04.279Z,99.90
2022-11-17T03:13:42.994Z,99.90
2022-11-17T03:16:31.060Z,99.90
2022-11-17T03:19:04.054Z,99.90
2022-11-17T03:21:37.366Z,99.90
2022-11-17T03:24:30.035Z,99.90
2022-11-17T03:27:25.543Z,99.90
2022-11-17T03:29:57.560Z,99.90
2022-11-17T03:32:25.988Z,99.90
2022-11-17T03:34:58.397Z,99.90
2022-11-17T03:37:28.383Z,99.90
2022-11-17T03:40:01.875Z,99.90
2022-11-17T03:42:32.262Z,99.90
2022-11-17T03:45:06.373Z,99.90
2022-11-17T03:47:34.476Z,99.90
2022-11-17T03:50:07.913Z,99.90
2022-11-17T03:52:36.385Z,99.90
2022-11-17T03:55:03.725Z,99.90
2022-11-17T03:58:05.614Z,99.90
2022-11-17T04:00:34.616Z,99.90
2022-11-17T04:03:01.498Z,99.90
2022-11-17T04:05:28.331Z,99.90
2022-11-17T04:07:55.349Z,99.90
2022-11-17T04:10:25.773Z,99.90
2022-11-17T04:13:12.333Z,99.90
2022-11-17T04:15:59.089Z,99.90
2022-11-17T04:18:27.184Z,99.90
2022-11-17T04:20:55.207Z,99.90
2022-11-17T04:23:22.343Z,99.90
2022-11-17T04:26:15.497Z,99.90
2022-11-17T04:28:50.275Z,99.90
2022-11-17T04:31:17.181Z,99.90
2022-11-17T04:33:45.367Z,99.90
2022-11-17T04:36:14.868Z,99.90
2022-11-17T04:38:43.393Z,99.90
2022-11-17T04:41:31.958Z,99.90
2022-11-17T04:43:59.469Z,99.90
2022-11-17T04:46:26.577Z,99.90
2022-11-17T04:48:54.496Z,99.90
2022-11-17T04:51:21.895Z,99.90
2022-11-17T04:53:49.274Z,99.90
2022-11-17T04:56:16.627Z,99.90
2022-11-17T04:58:43.675Z,99.90
2022-11-17T05:01:13.349Z,99.90
2022-11-17T05:03:53.324Z,99.90
2022-11-17T05:06:22.805Z,99.90
2022-11-17T05:08:50.371Z,99.90
2022-11-17T05:11:36.728Z,99.90
2022-11-17T05:14:03.856Z,99.90
2022-11-17T05:16:49.219Z,99.90
2022-11-17T05:19:21.270Z,99.90
2022-11-17T05:21:51.293Z,99.90
2022-11-17T05:24:18.682Z,99.90
2022-11-17T05:26:47.060Z,99.90
2022-11-17T05:29:16.318Z,99.90
2022-11-17T05:31:43.472Z,99.90
2022-11-17T05:34:12.679Z,99.90
2022-11-17T05:36:40.574Z,99.90
2022-11-17T05:39:08.513Z,99.90
2022-11-17T05:41:35.390Z,99.90
2022-11-17T05:44:02.385Z,99.90
2022-11-17T05:46:29.346Z,99.90
2022-11-17T05:48:56.369Z,99.90
2022-11-17T05:51:24.255Z,99.90
2022-11-17T05:53:51.376Z,99.90
2022-11-17T05:56:35.573Z,99.90
2022-11-17T05:59:27.741Z,99.90
2022-11-17T06:02:03.565Z,99.90
2022-11-17T06:04:31.540Z,99.90
2022-11-17T06:07:00.326Z,99.90
2022-11-17T06:09:36.595Z,99.90
2022-11-17T06:12:06.188Z,99.90
2022-11-17T06:14:35.516Z,99.90
2022-11-17T06:17:08.706Z,99.90
2022-11-17T06:19:42.001Z,99.90
2022-11-17T06:22:12.812Z,99.90
2022-11-17T06:24:43.251Z,99.90
2022-11-17T06:27:12.017Z,99.90
2022-11-17T06:29:43.868Z,99.90
2022-11-17T06:32:15.586Z,99.90
2022-11-17T06:34:48.047Z,99.90
2022-11-17T06:37:17.577Z,99.90
2022-11-17T06:39:44.397Z,99.90
2022-11-17T06:42:11.320Z,99.90
2022-11-17T06:44:38.319Z,99.90
2022-11-17T06:47:05.270Z,99.90
2022-11-17T06:49:32.219Z,99.90
2022-11-17T06:51:59.138Z,99.90
2022-11-17T06:54:26.084Z,99.90
2022-11-17T06:56:53.379Z,99.90
2022-11-17T06:59:20.463Z,99.90
2022-11-17T07:01:47.392Z,99.90
2022-11-17T07:04:14.328Z,99.90
2022-11-17T07:06:41.482Z,99.90
2022-11-17T07:09:08.384Z,99.90
2022-11-17T07:11:38.315Z,99.90
2022-11-17T07:14:05.305Z,99.90
2022-11-17T07:16:32.841Z,99.90
2022-11-17T07:19:03.352Z,99.90
2022-11-17T07:21:30.409Z,99.90
2022-11-17T07:23:57.303Z,99.90
2022-11-17T07:26:24.160Z,99.90
2022-11-17T07:28:51.069Z,99.90
2022-11-17T07:31:17.993Z,99.90
2022-11-17T07:33:44.845Z,99.90
2022-11-17T07:36:14.635Z,99.90
2022-11-17T07:38:41.539Z,99.90
2022-11-17T07:41:10.372Z,99.90
2022-11-17T07:43:38.512Z,99.90
2022-11-17T07:46:06.257Z,99.90
2022-11-17T07:48:33.828Z,99.90
2022-11-17T07:51:01.877Z,99.90
2022-11-17T07:53:29.060Z,99.90
2022-11-17T07:55:56.085Z,99.90
2022-11-17T07:58:25.497Z,99.90
2022-11-17T08:00:52.463Z,99.90
2022-11-17T08:03:19.496Z,99.90
2022-11-17T08:05:46.567Z,99.90
2022-11-17T08:08:14.075Z,99.90
2022-11-17T08:10:42.993Z,99.90
2022-11-17T08:13:09.971Z,99.90
2022-11-17T08:15:37.188Z,99.90
2022-11-17T08:18:04.268Z,99.90
2022-11-17T08:20:31.079Z,99.90
2022-11-17T08:22:58.582Z,99.90
2022-11-17T08:25:27.335Z,99.90
2022-11-17T08:27:58.678Z,99.90
2022-11-17T08:30:26.250Z,99.90
2022-11-17T08:32:54.804Z,99.90
2022-11-17T08:35:24.509Z,99.90
2022-11-17T08:37:52.305Z,99.90
2022-11-17T08:40:19.752Z,99.90
2022-11-17T08:42:47.460Z,99.90
2022-11-17T08:45:14.419Z,99.90
2022-11-17T08:47:41.449Z,99.90
2022-11-17T08:50:09.216Z,99.90
2022-11-17T08:52:36.167Z,99.90
2022-11-17T08:55:05.760Z,99.90
2022-11-17T08:57:33.211Z,99.90
2022-11-17T09:00:00.753Z,99.90
2022-11-17T09:02:27.865Z,99.90
2022-11-17T09:04:54.818Z,99.90
2022-11-17T09:07:22.047Z,99.90
2022-11-17T09:09:49.359Z,99.90
2022-11-17T09:12:18.047Z,99.90
2022-11-17T09:14:46.322Z,99.90
2022-11-17T09:17:13.148Z,99.90
2022-11-17T09:19:40.024Z,99.90
2022-11-17T09:22:07.016Z,99.90
2022-11-17T09:24:34.152Z,99.90
2022-11-17T09:27:03.019Z,99.90
2022-11-17T09:29:30.912Z,99.90
2022-11-17T09:31:57.938Z,99.90
2022-11-17T09:34:25.850Z,99.90
2022-11-17T09:36:52.781Z,99.90
2022-11-17T09:39:19.669Z,99.90
2022-11-17T09:41:49.385Z,99.90
2022-11-17T09:44:31.036Z,99.90
2022-11-17T09:47:25.041Z,99.90
2022-11-17T09:49:58.727Z,99.90
2022-11-17T09:52:41.220Z,99.90
2022-11-17T09:55:42.506Z,99.90
2022-11-17T09:58:34.706Z,99.90
2022-11-17T10:01:02.366Z,99.90
2022-11-17T10:03:38.634Z,99.90
2022-11-17T10:06:15.844Z,99.90
2022-11-17T10:08:58.419Z,99.90
2022-11-17T10:11:33.404Z,99.90
2022-11-17T10:14:09.118Z,99.90
2022-11-17T10:16:37.924Z,99.90
2022-11-17T10:19:20.662Z,99.80
2022-11-17T10:21:54.191Z,99.90
2022-11-17T10:24:43.145Z,99.90
2022-11-17T10:27:19.050Z,99.90
2022-11-17T10:30:04.930Z,99.90
2022-11-17T10:32:35.822Z,99.60
2022-11-17T10:35:16.388Z,99.70
2022-11-17T10:37:52.546Z,99.90
2022-11-17T10:40:25.350Z,99.80
2022-11-17T10:43:17.398Z,99.70
2022-11-17T10:45:49.669Z,99.60
2022-11-17T10:48:30.302Z,99.30
2022-11-17T10:51:21.787Z,99.40
2022-11-17T10:54:03.837Z,99.30
2022-11-17T10:56:34.607Z,99.30
2022-11-17T10:59:14.197Z,99.20
2022-11-17T11:01:44.841Z,99.00
2022-11-17T11:04:39.524Z,99.30
2022-11-17T11:07:08.102Z,99.70
2022-11-17T11:09:41.954Z,99.30
2022-11-17T11:12:16.166Z,99.00
2022-11-17T11:14:50.470Z,98.90
2022-11-17T11:17:18.343Z,99.00
2022-11-17T11:19:52.830Z,98.90
2022-11-17T11:22:44.802Z,99.10
2022-11-17T11:25:30.071Z,99.20
2022-11-17T11:28:29.353Z,99.20
2022-11-17T11:31:28.474Z,99.60
2022-11-17T11:34:18.923Z,99.90
2022-11-17T11:37:03.217Z,99.70
2022-11-17T11:40:03.494Z,99.60
2022-11-17T11:42:40.669Z,99.70
2022-11-17T11:45:21.418Z,99.60
2022-11-17T11:48:02.706Z,99.80
2022-11-17T11:50:41.936Z,99.80
2022-11-17T11:53:46.140Z,99.80
2022-11-17T11:56:12.975Z,99.90
2022-11-17T11:59:06.680Z,99.90
2022-11-17T12:01:50.515Z,99.90
2022-11-17T12:04:30.487Z,99.90
2022-11-17T12:07:07.366Z,99.90
2022-11-17T12:09:56.085Z,99.70
2022-11-17T12:12:30.939Z,99.80
2022-11-17T12:15:12.998Z,99.60
2022-11-17T12:17:54.952Z,99.90
2022-11-17T12:20:36.897Z,99.90
2022-11-17T12:23:24.918Z,99.90
2022-11-17T12:25:54.711Z,99.90
2022-11-17T12:28:35.906Z,99.80
2022-11-17T12:31:09.449Z,99.50
2022-11-17T12:33:52.063Z,99.50
2022-11-17T12:36:30.479Z,99.60
2022-11-17T12:39:03.446Z,99.20
2022-11-17T12:41:48.650Z,98.80
2022-11-17T12:44:47.817Z,98.90
2022-11-17T12:47:22.679Z,98.30
2022-11-17T12:49:52.238Z,98.10
2022-11-17T12:52:35.028Z,98.00
2022-11-17T12:55:16.703Z,97.70
2022-11-17T12:57:48.101Z,97.40
2022-11-17T13:00:25.244Z,97.60
2022-11-17T13:03:59.540Z,97.50
2022-11-17T13:06:41.792Z,97.70
2022-11-17T13:09:12.245Z,97.60
2022-11-17T13:11:39.302Z,97.60
2022-11-17T13:14:10.374Z,97.50
2022-11-17T13:16:43.655Z,97.60
2022-11-17T13:19:30.030Z,98.00
2022-11-17T13:22:05.778Z,98.00
2022-11-17T13:24:35.816Z,98.00
2022-11-17T13:27:07.456Z,98.20
2022-11-17T13:29:34.421Z,98.20
2022-11-17T13:32:16.948Z,97.90
2022-11-17T13:34:52.832Z,98.30
2022-11-17T13:37:22.981Z,98.50
2022-11-17T13:40:17.328Z,98.00
2022-11-17T13:42:44.580Z,98.20
2022-11-17T13:45:14.862Z,98.10
2022-11-17T13:47:50.608Z,98.30
2022-11-17T13:50:37.388Z,98.20
2022-11-17T13:53:22.868Z,98.20
2022-11-17T13:55:50.381Z,98.30
2022-11-17T13:58:37.850Z,98.30
2022-11-17T14:01:04.850Z,98.00
2022-11-17T14:03:42.826Z,98.40
2022-11-17T14:06:11.938Z,98.20
2022-11-17T14:08:41.182Z,98.10
2022-11-17T14:11:16.465Z,98.00
2022-11-17T14:13:50.224Z,97.80
2022-11-17T14:16:23.307Z,98.00
2022-11-17T14:19:16.726Z,98.10
2022-11-17T14:22:02.141Z,98.20
2022-11-17T14:24:30.474Z,98.10
2022-11-17T14:26:58.156Z,98.10
2022-11-17T14:29:25.654Z,98.20
2022-11-17T14:31:52.613Z,98.40
2022-11-17T14:34:19.715Z,98.00
2022-11-17T14:36:52.621Z,98.20
2022-11-17T14:39:19.797Z,98.30
2022-11-17T14:41:49.768Z,98.40
2022-11-17T14:44:17.416Z,98.60
2022-11-17T14:46:44.261Z,98.20
2022-11-17T14:49:11.139Z,98.40
2022-11-17T14:51:38.234Z,98.60
2022-11-17T14:54:05.107Z,98.60
2022-11-17T14:56:32.036Z,98.50
2022-11-17T14:58:59.857Z,98.60
2022-11-17T15:01:32.107Z,98.30
2022-11-17T15:04:20.833Z,98.40
2022-11-17T15:06:49.017Z,98.40
2022-11-17T15:09:16.546Z,98.50
2022-11-17T15:11:43.463Z,98.00
2022-11-17T15:14:11.112Z,98.40
2022-11-17T15:16:38.273Z,98.30
2022-11-17T15:19:05.235Z,98.60
2022-11-17T15:21:32.013Z,98.10
2022-11-17T15:23:59.080Z,97.80
2022-11-17T15:26:26.605Z,98.10
2022-11-17T15:28:57.769Z,97.80
2022-11-17T15:31:24.677Z,98.00
2022-11-17T15:33:51.591Z,98.00
2022-11-17T15:36:21.397Z,98.00
2022-11-17T15:38:48.465Z,98.30
2022-11-17T15:41:16.284Z,98.00
2022-11-17T15:43:44.832Z,98.20
2022-11-17T15:46:13.034Z,98.30
2022-11-17T15:48:44.581Z,98.50
2022-11-17T15:51:14.540Z,98.50
2022-11-17T15:53:42.298Z,98.30
2022-11-17T15:56:19.454Z,98.40
2022-11-17T15:58:47.732Z,98.30
2022-11-17T16:01:26.605Z,98.50
2022-11-17T16:03:58.555Z,98.20
2022-11-17T16:06:25.549Z,98.50
2022-11-17T16:08:52.667Z,98.10
2022-11-17T16:11:20.001Z,98.50
2022-11-17T16:13:47.434Z,98.10
2022-11-17T16:16:15.584Z,97.90
2022-11-17T16:18:42.462Z,97.80
2022-11-17T16:21:12.555Z,98.00
2022-11-17T16:23:50.910Z,97.70
2022-11-17T16:26:19.648Z,97.60
2022-11-17T16:28:46.958Z,97.60
2022-11-17T16:31:22.268Z,97.80
2022-11-17T16:33:57.475Z,97.60
2022-11-17T16:36:35.641Z,97.40
2022-11-17T16:39:05.315Z,97.40
2022-11-17T16:41:34.734Z,97.50
2022-11-17T16:44:02.854Z,97.80
2022-11-17T16:46:31.457Z,97.80
2022-11-17T16:49:06.066Z,97.50
2022-11-17T16:51:33.576Z,97.60
2022-11-17T16:54:03.304Z,97.50
2022-11-17T16:56:31.207Z,97.70
2022-11-17T16:58:59.311Z,97.90
2022-11-17T17:01:27.201Z,97.70
2022-11-17T17:04:01.343Z,97.50
2022-11-17T17:06:28.541Z,97.50
2022-11-17T17:08:57.147Z,97.50
2022-11-17T17:11:24.807Z,97.50
2022-11-17T17:13:51.842Z,97.60
2022-11-17T17:16:20.105Z,97.50
2022-11-17T17:18:47.298Z,97.40
2022-11-17T17:21:18.925Z,97.60
2022-11-17T17:23:45.952Z,97.70
2022-11-17T17:26:18.383Z,97.40
2022-11-17T17:28:47.149Z,97.60
2022-11-17T17:31:20.976Z,97.50
2022-11-17T17:33:50.338Z,97.70
2022-11-17T17:36:22.422Z,98.00
2022-11-17T17:38:55.531Z,97.90
2022-11-17T17:41:25.840Z,97.40
2022-11-17T17:43:58.247Z,97.60
2022-11-17T17:46:25.821Z,97.40
2022-11-17T17:48:52.838Z,97.20
2022-11-17T17:51:21.680Z,97.40
2022-11-17T17:53:51.408Z,97.60
2022-11-17T17:56:20.871Z,97.50
2022-11-17T17:58:51.981Z,97.60
2022-11-17T18:01:27.478Z,97.70
2022-11-17T18:04:08.141Z,97.50
2022-11-17T18:06:39.497Z,97.80
2022-11-17T18:09:08.403Z,97.60
2022-11-17T18:11:35.752Z,97.70
2022-11-17T18:14:03.658Z,97.90
2022-11-17T18:16:32.368Z,97.60
2022-11-17T18:19:05.496Z,97.50
2022-11-17T18:21:33.178Z,97.60
2022-11-17T18:24:01.743Z,98.00
2022-11-17T18:26:31.694Z,98.20
2022-11-17T18:29:01.065Z,97.90
2022-11-17T18:31:29.937Z,98.20
2022-11-17T18:34:02.056Z,98.20
2022-11-17T18:36:29.436Z,97.80
2022-11-17T18:38:58.513Z,98.00
2022-11-17T18:41:27.063Z,98.10
2022-11-17T18:43:55.513Z,98.20
2022-11-17T18:46:24.244Z,98.30
2022-11-17T18:48:52.411Z,98.00
2022-11-17T18:51:21.941Z,98.20
2022-11-17T18:53:54.065Z,98.00
2022-11-17T18:56:23.774Z,98.20
2022-11-17T18:58:50.978Z,97.90
2022-11-17T19:01:20.813Z,97.70
2022-11-17T19:03:49.955Z,97.80
2022-11-17T19:06:17.976Z,98.10
2022-11-17T19:08:45.283Z,98.10
2022-11-17T19:11:12.954Z,98.10
2022-11-17T19:13:41.287Z,97.80
2022-11-17T19:16:14.684Z,98.20
2022-11-17T19:18:43.024Z,98.40
2022-11-17T19:21:18.367Z,98.60
2022-11-17T19:23:51.496Z,98.70
2022-11-17T19:26:21.680Z,98.40
2022-11-17T19:28:48.943Z,98.80
2022-11-17T19:31:19.005Z,99.00
2022-11-17T19:33:47.189Z,98.90
2022-11-17T19:36:15.967Z,98.90
2022-11-17T19:38:45.470Z,99.00
2022-11-17T19:41:15.360Z,99.10
2022-11-17T19:43:45.538Z,99.00
2022-11-17T19:46:17.144Z,99.10
2022-11-17T19:48:45.126Z,99.00
2022-11-17T19:51:26.953Z,98.90
2022-11-17T19:53:58.817Z,98.80
2022-11-17T19:56:26.434Z,98.80
2022-11-17T19:58:53.964Z,99.10
2022-11-17T20:01:23.437Z,98.90
2022-11-17T20:03:50.764Z,98.70
2022-11-17T20:06:20.007Z,98.50
2022-11-17T20:08:48.431Z,98.60
2022-11-17T20:11:21.374Z,98.50
2022-11-17T20:13:48.352Z,98.10
2022-11-17T20:16:21.328Z,98.20
2022-11-17T20:18:56.526Z,98.40
2022-11-17T20:21:24.503Z,98.70
2022-11-17T20:23:51.873Z,98.30
2022-11-17T20:26:22.479Z,98.60
2022-11-17T20:28:49.856Z,98.70
2022-11-17T20:31:20.501Z,98.50
2022-11-17T20:33:48.664Z,98.30
2022-11-17T20:36:18.732Z,98.50
2022-11-17T20:38:49.643Z,98.30
2022-11-17T20:41:17.079Z,97.90
2022-11-17T20:43:48.655Z,98.10
2022-11-17T20:46:15.509Z,98.10
2022-11-17T20:48:43.020Z,98.40
2022-11-17T20:51:12.268Z,98.60
2022-11-17T20:53:39.770Z,98.80
2022-11-17T20:56:08.870Z,98.80
2022-11-17T20:58:35.919Z,98.80
2022-11-17T21:01:20.038Z,98.70
2022-11-17T21:03:47.380Z,98.50
2022-11-17T21:06:14.962Z,98.50
2022-11-17T21:08:43.328Z,98.30
2022-11-17T21:11:32.998Z,98.50
2022-11-17T21:14:00.176Z,98.20
2022-11-17T21:16:27.247Z,98.00
2022-11-17T21:18:54.177Z,98.30
2022-11-17T21:21:21.117Z,98.60
2022-11-17T21:23:48.018Z,98.50
2022-11-17T21:26:19.250Z,98.20
2022-11-17T21:28:46.954Z,98.30
2022-11-17T21:31:16.144Z,97.90
2022-11-17T21:33:43.852Z,98.30
2022-11-17T21:36:13.058Z,98.30
2022-11-17T21:38:40.211Z,98.20
2022-11-17T21:41:10.690Z,98.40
2022-11-17T21:43:38.955Z,98.50
2022-11-17T21:46:09.169Z,98.40
2022-11-17T21:48:37.231Z,98.60
2022-11-17T21:51:04.896Z,98.60
2022-11-17T21:53:31.890Z,98.60
2022-11-17T21:56:06.616Z,98.60
2022-11-17T21:58:34.189Z,98.70
2022-11-17T22:01:12.665Z,98.70
2022-11-17T22:03:40.882Z,98.80
2022-11-17T22:06:18.132Z,98.70
2022-11-17T22:08:46.052Z,98.70
2022-11-17T22:11:35.421Z,98.50
2022-11-17T22:14:02.647Z,98.50
2022-11-17T22:16:33.881Z,98.50
2022-11-17T22:19:00.920Z,98.50
2022-11-17T22:21:29.706Z,98.30
2022-11-17T22:23:57.828Z,98.30
2022-11-17T22:26:24.774Z,98.50
2022-11-17T22:28:53.465Z,98.40
2022-11-17T22:31:20.644Z,98.60
2022-11-17T22:33:48.982Z,98.70
2022-11-17T22:36:16.092Z,98.70
2022-11-17T22:38:43.593Z,98.80
2022-11-17T22:41:12.620Z,98.40
2022-11-17T22:43:39.565Z,98.60
2022-11-17T22:46:09.893Z,98.70
2022-11-17T22:48:37.869Z,98.60
2022-11-17T22:51:05.552Z,98.50
2022-11-17T22:53:33.890Z,98.70
2022-11-17T22:56:05.586Z,98.60
2022-11-17T22:58:33.977Z,98.50
2022-11-17T23:01:06.495Z,98.70
2022-11-17T23:03:33.888Z,98.80
2022-11-17T23:06:02.504Z,99.00
2022-11-17T23:08:29.739Z,98.50
2022-11-17T23:11:36.980Z,98.60
2022-11-17T23:13:53.077Z,98.60
2022-11-17T23:16:20.065Z,98.60
2022-11-17T23:18:46.915Z,98.50
2022-11-17T23:21:13.966Z,98.40
2022-11-17T23:23:41.208Z,98.70
2022-11-17T23:26:10.805Z,98.60
2022-11-17T23:28:39.116Z,98.60
2022-11-17T23:31:08.333Z,98.50
2022-11-17T23:33:37.558Z,98.50
2022-11-17T23:36:06.643Z,98.80
2022-11-17T23:38:33.905Z,98.80
2022-11-17T23:41:07.781Z,98.90
2022-11-17T23:43:34.757Z,98.90
2022-11-17T23:46:13.436Z,99.00
2022-11-17T23:48:41.134Z,99.00
2022-11-17T23:51:10.337Z,99.00
2022-11-17T23:53:37.646Z,98.70
2022-11-17T23:56:05.403Z,98.60
2022-11-17T23:58:32.750Z,98.70
